Time;durP1;ratioP1;P1;durP2;ratioP2;P2;SDS_P1;SDS_P2;PMS_P1;PMS_P2;Temp;Humidity;BMP_temperature;BMP_pressure;BME280_temperature;BME280_humidity;BME280_pressure;Samples;Min_cycle;Max_cycle;Signal;HPM_P1;HPM_P2
2021/12/06 00:01:50;;;;;;;19.42;11.10;;;6.90;99.90;;;;;;4955407;29;20167;-79
2021/12/06 00:04:24;;;;;;;12.35;10.77;;;7.00;99.90;;;;;;4955343;29;20203;-81
2021/12/06 00:06:54;;;;;;;11.40;10.02;;;7.10;99.90;;;;;;4955185;29;20761;-77
2021/12/06 00:09:22;;;;;;;11.27;9.57;;;7.30;99.90;;;;;;4955196;29;20170;-78
2021/12/06 00:11:51;;;;;;;11.93;10.13;;;7.40;99.90;;;;;;4955273;29;20245;-77
2021/12/06 00:14:17;;;;;;;10.82;9.15;;;7.30;99.90;;;;;;4955432;29;20170;-78
2021/12/06 00:16:42;;;;;;;13.00;9.50;;;7.20;99.90;;;;;;4955717;29;20313;-84
2021/12/06 00:19:08;;;;;;;10.93;9.35;;;7.20;99.90;;;;;;4955534;29;20835;-78
2021/12/06 00:21:34;;;;;;;13.18;10.57;;;7.40;99.90;;;;;;4955119;28;20552;-82
2021/12/06 00:24:00;;;;;;;15.73;10.32;;;7.60;99.90;;;;;;4955144;29;20232;-77
2021/12/06 00:26:26;;;;;;;15.45;9.95;;;7.70;99.90;;;;;;4955451;29;20229;-76
2021/12/06 00:28:57;;;;;;;14.25;9.32;;;7.60;99.90;;;;;;4955409;29;20479;-82
2021/12/06 00:31:24;;;;;;;11.65;10.43;;;7.40;99.90;;;;;;4937745;29;20171;-78
2021/12/06 00:33:57;;;;;;;13.68;10.52;;;7.70;99.90;;;;;;4955443;29;20185;-80
2021/12/06 00:36:27;;;;;;;13.02;10.13;;;7.70;99.90;;;;;;4955410;29;20182;-79
2021/12/06 00:38:54;;;;;;;11.38;9.30;;;7.70;99.90;;;;;;4955210;29;20198;-79
2021/12/06 00:41:20;;;;;;;13.68;10.45;;;7.80;99.90;;;;;;4955382;29;20581;-82
2021/12/06 00:43:46;;;;;;;15.00;9.77;;;7.50;99.90;;;;;;4954179;29;20688;-83
2021/12/06 00:46:12;;;;;;;10.32;8.93;;;7.40;99.90;;;;;;4955698;29;20183;-83
2021/12/06 00:48:38;;;;;;;11.05;9.10;;;7.40;99.90;;;;;;4955742;29;20221;-84
2021/12/06 00:51:04;;;;;;;11.32;10.10;;;7.50;99.90;;;;;;4938012;29;20265;-83
2021/12/06 00:53:29;;;;;;;10.18;8.55;;;7.40;99.90;;;;;;4937931;29;20194;-82
2021/12/06 00:55:56;;;;;;;11.93;9.52;;;7.50;99.90;;;;;;4955204;29;20202;-81
2021/12/06 00:58:21;;;;;;;11.13;9.93;;;7.70;99.90;;;;;;4954970;29;20530;-83
2021/12/06 01:00:50;;;;;;;14.27;10.48;;;7.90;99.90;;;;;;4955234;29;20257;-78
2021/12/06 01:03:20;;;;;;;12.27;10.40;;;7.90;99.90;;;;;;4955273;29;20167;-78
2021/12/06 01:05:46;;;;;;;14.27;11.55;;;8.00;99.90;;;;;;4955065;29;20162;-83
2021/12/06 01:08:12;;;;;;;15.95;11.27;;;8.00;99.90;;;;;;4954813;29;20178;-83
2021/12/06 01:10:39;;;;;;;12.75;11.10;;;8.00;99.90;;;;;;4955123;29;20167;-82
2021/12/06 01:13:05;;;;;;;17.92;12.15;;;7.90;99.90;;;;;;4953885;29;20265;-76
2021/12/06 01:15:33;;;;;;;15.25;11.98;;;8.00;99.90;;;;;;4937537;29;20174;-79
2021/12/06 01:18:01;;;;;;;15.35;12.32;;;8.00;99.90;;;;;;4953504;29;20554;-84
2021/12/06 01:20:29;;;;;;;15.20;12.02;;;8.10;99.90;;;;;;4954511;29;20257;-81
2021/12/06 01:23:02;;;;;;;17.60;12.73;;;8.00;99.90;;;;;;4954071;29;20187;-83
2021/12/06 01:30:49;;;;;;;18.80;12.23;;;7.70;99.90;;;;;;4954946;29;20174;-82
2021/12/06 01:41:33;;;;;;;16.20;12.18;;;7.70;99.90;;;;;;4958417;29;20185;-84
2021/12/06 01:44:15;;;;;;;16.00;12.73;;;7.90;99.90;;;;;;4958366;29;20191;-82
2021/12/06 01:46:49;;;;;;;18.63;13.40;;;7.80;99.90;;;;;;4958005;29;20285;-77
2021/12/06 01:49:18;;;;;;;15.93;12.32;;;7.70;99.90;;;;;;4957912;29;20177;-79
2021/12/06 01:51:44;;;;;;;18.85;12.75;;;7.60;99.90;;;;;;4940750;29;20261;-82
2021/12/06 01:54:11;;;;;;;19.52;13.07;;;7.40;99.90;;;;;;4958324;29;20177;-77
2021/12/06 01:56:37;;;;;;;18.35;13.52;;;7.30;99.90;;;;;;4940570;29;20190;-77
2021/12/06 01:59:04;;;;;;;18.05;12.00;;;7.50;99.90;;;;;;4958004;29;20210;-78
2021/12/06 02:01:30;;;;;;;20.08;12.77;;;7.30;99.90;;;;;;4957661;29;20649;-77
2021/12/06 02:03:57;;;;;;;14.63;12.63;;;7.30;99.90;;;;;;4957909;29;20194;-77
2021/12/06 02:06:23;;;;;;;17.65;12.43;;;7.50;99.90;;;;;;4940580;29;20186;-78
2021/12/06 02:08:48;;;;;;;14.27;11.65;;;7.50;99.90;;;;;;4957875;29;20251;-77
2021/12/06 02:11:14;;;;;;;17.30;12.48;;;7.50;99.90;;;;;;4957661;29;20631;-77
2021/12/06 02:13:51;;;;;;;18.10;13.13;;;7.50;99.90;;;;;;4956284;29;20174;-78
2021/12/06 02:16:20;;;;;;;18.52;12.75;;;7.70;99.90;;;;;;4956952;29;20826;-76
2021/12/06 02:18:51;;;;;;;19.75;13.35;;;7.90;99.90;;;;;;4955781;28;20206;-77
2021/12/06 02:21:28;;;;;;;22.48;14.23;;;7.80;99.90;;;;;;4957293;29;20578;-77
2021/12/06 02:23:55;;;;;;;18.33;13.70;;;7.70;99.90;;;;;;4957098;29;20186;-77
2021/12/06 02:26:22;;;;;;;21.70;14.57;;;7.70;99.90;;;;;;4956881;29;20194;-78
2021/12/06 02:28:48;;;;;;;21.35;14.00;;;7.70;99.90;;;;;;4956954;29;20175;-77
2021/12/06 02:31:14;;;;;;;20.48;13.70;;;7.40;99.90;;;;;;4956904;29;20182;-76
2021/12/06 02:33:40;;;;;;;37.40;14.18;;;7.20;99.90;;;;;;4957012;29;20564;-77
2021/12/06 02:36:06;;;;;;;21.80;14.73;;;7.00;99.90;;;;;;4956830;29;20190;-77
2021/12/06 02:38:32;;;;;;;25.42;15.70;;;6.90;99.90;;;;;;4956716;29;20293;-77
2021/12/06 02:40:58;;;;;;;21.08;14.02;;;7.00;99.90;;;;;;4956828;29;20584;-76
2021/12/06 02:43:24;;;;;;;19.98;13.75;;;7.20;99.90;;;;;;4955711;28;20174;-77
2021/12/06 02:45:50;;;;;;;28.27;15.90;;;7.10;99.90;;;;;;4939062;29;20230;-77
2021/12/06 02:48:16;;;;;;;23.30;15.90;;;7.00;99.90;;;;;;4956823;29;20163;-77
2021/12/06 02:50:47;;;;;;;27.13;16.02;;;6.80;99.90;;;;;;4956767;29;20224;-77
2021/12/06 02:53:13;;;;;;;23.08;15.25;;;6.80;99.90;;;;;;4956752;29;20564;-77
2021/12/06 02:55:41;;;;;;;26.15;15.48;;;6.80;99.90;;;;;;4956450;29;20167;-76
2021/12/06 02:58:33;;;;;;;26.70;16.50;;;6.60;99.90;;;;;;4940017;29;20182;-80
2021/12/06 03:01:00;;;;;;;23.60;16.58;;;6.60;99.90;;;;;;4956565;29;20189;-77
2021/12/06 03:03:26;;;;;;;23.77;16.40;;;6.50;99.90;;;;;;4956546;29;20170;-78
2021/12/06 03:05:52;;;;;;;24.65;16.15;;;6.40;99.90;;;;;;4956528;29;20561;-78
2021/12/06 03:08:39;;;;;;;26.95;15.50;;;6.10;99.90;;;;;;4956500;29;20174;-77
2021/12/06 03:11:09;;;;;;;31.65;17.05;;;6.00;99.90;;;;;;4954981;29;20186;-78
2021/12/06 03:13:35;;;;;;;21.92;15.15;;;6.10;99.90;;;;;;4956189;29;20257;-77
2021/12/06 03:16:01;;;;;;;24.95;14.70;;;6.40;99.90;;;;;;4956277;29;20209;-78
2021/12/06 03:18:26;;;;;;;22.00;16.13;;;6.40;99.90;;;;;;4956189;29;20175;-79
2021/12/06 03:20:52;;;;;;;27.10;16.00;;;6.20;99.90;;;;;;4955969;29;20252;-77
2021/12/06 03:23:18;;;;;;;24.23;15.52;;;6.40;99.90;;;;;;4955834;29;20193;-79
2021/12/06 03:25:44;;;;;;;24.17;16.00;;;6.20;99.90;;;;;;4956197;29;20221;-78
2021/12/06 03:28:10;;;;;;;20.15;15.73;;;6.20;99.90;;;;;;4956311;29;20166;-78
2021/12/06 03:30:35;;;;;;;22.58;15.10;;;6.10;99.90;;;;;;4956299;29;20717;-77
2021/12/06 03:33:01;;;;;;;22.73;15.55;;;6.00;99.90;;;;;;4955890;29;20181;-78
2021/12/06 03:35:27;;;;;;;30.70;17.63;;;6.00;99.90;;;;;;4955942;29;20183;-78
2021/12/06 03:37:53;;;;;;;23.58;15.05;;;6.10;99.90;;;;;;4955864;29;20262;-78
2021/12/06 03:40:18;;;;;;;20.60;15.38;;;6.20;99.90;;;;;;4955854;29;20296;-78
2021/12/06 03:42:44;;;;;;;23.65;16.20;;;6.20;99.90;;;;;;4938714;29;20163;-78
2021/12/06 03:45:11;;;;;;;24.63;16.25;;;6.20;99.90;;;;;;4955672;29;20281;-78
2021/12/06 03:47:37;;;;;;;24.23;16.10;;;6.20;99.90;;;;;;4955490;29;20262;-78
2021/12/06 03:50:05;;;;;;;30.02;18.15;;;6.30;99.90;;;;;;4955623;29;20253;-78
2021/12/06 03:52:31;;;;;;;24.73;16.90;;;6.30;99.90;;;;;;4955674;29;20167;-79
2021/12/06 03:54:57;;;;;;;26.33;16.80;;;6.30;99.90;;;;;;4938357;29;20174;-78
2021/12/06 03:57:24;;;;;;;35.50;16.88;;;6.20;99.90;;;;;;4937500;29;20301;-79
2021/12/06 03:59:51;;;;;;;28.38;16.13;;;6.20;99.90;;;;;;4955113;29;20205;-78
2021/12/06 04:02:17;;;;;;;25.33;16.00;;;6.20;99.90;;;;;;4955162;29;20178;-77
2021/12/06 04:04:43;;;;;;;33.53;17.83;;;6.00;99.90;;;;;;4953905;29;20221;-79
2021/12/06 04:07:09;;;;;;;25.15;16.55;;;5.90;99.90;;;;;;4955048;29;20665;-78
2021/12/06 04:09:35;;;;;;;23.17;15.30;;;5.90;99.90;;;;;;4955374;29;20218;-79
2021/12/06 04:12:02;;;;;;;25.05;16.25;;;5.90;99.90;;;;;;4954952;29;20169;-78
2021/12/06 04:14:27;;;;;;;25.65;15.48;;;5.90;99.90;;;;;;4955321;29;20637;-83
2021/12/06 04:16:53;;;;;;;24.42;16.42;;;6.00;99.90;;;;;;4955437;29;20225;-77
2021/12/06 04:19:19;;;;;;;25.00;16.10;;;6.20;99.90;;;;;;4956374;29;20587;-79
2021/12/06 04:21:46;;;;;;;26.85;16.90;;;6.20;99.90;;;;;;4961272;29;20222;-80
2021/12/06 04:24:13;;;;;;;27.15;16.95;;;6.00;99.90;;;;;;4972330;29;20182;-77
2021/12/06 04:26:39;;;;;;;34.58;18.55;;;5.80;99.90;;;;;;4959685;29;20201;-77
2021/12/06 04:29:06;;;;;;;28.15;16.33;;;5.80;99.90;;;;;;4955286;29;20173;-80
2021/12/06 04:31:37;;;;;;;24.25;16.60;;;5.60;99.90;;;;;;4955031;29;20198;-84
2021/12/06 04:34:03;;;;;;;28.40;15.75;;;5.60;99.90;;;;;;4954924;29;20164;-78
2021/12/06 04:36:29;;;;;;;26.90;15.98;;;5.50;99.90;;;;;;4954528;29;20197;-84
2021/12/06 04:38:55;;;;;;;26.75;16.90;;;5.60;99.90;;;;;;4937343;29;20210;-79
2021/12/06 04:41:20;;;;;;;25.90;16.00;;;5.50;99.90;;;;;;4955075;29;20163;-79
2021/12/06 04:43:47;;;;;;;29.23;17.42;;;5.60;99.90;;;;;;4954934;29;20176;-79
2021/12/06 04:46:13;;;;;;;28.92;17.58;;;5.70;99.90;;;;;;4937609;29;20182;-82
2021/12/06 04:48:39;;;;;;;26.63;17.63;;;5.60;99.90;;;;;;4954670;29;20170;-78
2021/12/06 04:51:06;;;;;;;31.48;17.38;;;5.50;99.90;;;;;;4955242;29;20174;-78
2021/12/06 04:53:36;;;;;;;28.35;17.80;;;5.30;99.90;;;;;;4955462;29;20193;-82
2021/12/06 04:56:29;;;;;;;29.42;16.15;;;5.10;99.90;;;;;;4955048;29;20190;-78
2021/12/06 04:59:10;;;;;;;25.13;15.30;;;5.10;99.90;;;;;;4954741;29;20677;-78
2021/12/06 05:01:37;;;;;;;27.95;15.27;;;4.90;99.90;;;;;;4954830;29;20170;-81
2021/12/06 05:04:18;;;;;;;36.00;18.65;;;5.00;99.90;;;;;;4954601;29;20249;-80
2021/12/06 05:06:47;;;;;;;28.77;16.30;;;5.00;99.90;;;;;;4954690;28;20235;-80
2021/12/06 05:09:25;;;;;;;27.05;17.17;;;5.00;99.90;;;;;;4955504;29;20194;-78
2021/12/06 05:11:51;;;;;;;27.48;17.20;;;5.00;99.90;;;;;;4954864;29;20200;-79
2021/12/06 05:14:17;;;;;;;31.58;17.63;;;5.00;99.90;;;;;;4955034;29;20221;-79
2021/12/06 05:16:43;;;;;;;26.80;17.50;;;5.00;99.90;;;;;;4954681;29;20261;-78
2021/12/06 05:19:09;;;;;;;31.60;16.83;;;4.90;99.90;;;;;;4954883;29;20297;-83
2021/12/06 05:21:35;;;;;;;29.73;18.40;;;5.30;99.90;;;;;;4937740;29;20174;-79
2021/12/06 05:24:02;;;;;;;26.70;16.05;;;5.30;99.90;;;;;;4956613;29;20182;-77
2021/12/06 05:26:28;;;;;;;28.30;17.88;;;5.10;99.90;;;;;;4958809;29;20198;-77
2021/12/06 05:28:58;;;;;;;30.83;18.48;;;5.00;99.90;;;;;;4959420;29;20175;-77
2021/12/06 05:31:25;;;;;;;29.20;16.90;;;4.90;99.90;;;;;;4959355;29;20198;-78
2021/12/06 05:33:54;;;;;;;30.17;16.73;;;4.90;99.90;;;;;;4959646;29;20494;-77
2021/12/06 05:36:21;;;;;;;32.58;17.40;;;4.70;99.90;;;;;;4959520;29;20183;-77
2021/12/06 05:38:48;;;;;;;31.67;17.73;;;4.60;99.90;;;;;;4959144;29;20186;-77
2021/12/06 05:41:14;;;;;;;30.20;17.80;;;4.70;99.90;;;;;;4958876;29;20167;-78
2021/12/06 05:43:39;;;;;;;31.42;17.90;;;4.90;99.90;;;;;;4970909;29;20218;-77
2021/12/06 05:46:05;;;;;;;36.60;19.90;;;5.00;99.90;;;;;;4974391;28;20182;-77
2021/12/06 05:48:31;;;;;;;33.35;18.65;;;5.20;99.90;;;;;;4973899;28;20155;-78
2021/12/06 05:50:57;;;;;;;50.13;20.33;;;5.50;99.90;;;;;;4974874;28;20183;-78
2021/12/06 05:53:23;;;;;;;87.18;21.25;;;5.60;99.90;;;;;;4967272;28;20158;-78
2021/12/06 05:55:49;;;;;;;72.30;21.40;;;5.40;99.90;;;;;;4973432;28;20167;-76
2021/12/06 05:58:19;;;;;;;106.63;19.20;;;5.20;99.90;;;;;;4958472;28;20166;-79
2021/12/06 06:00:45;;;;;;;135.68;19.63;;;4.90;99.90;;;;;;4975424;28;20166;-77
2021/12/06 06:03:11;;;;;;;68.00;18.75;;;4.80;99.90;;;;;;4968964;28;20177;-82
2021/12/06 06:05:37;;;;;;;43.47;19.02;;;4.80;99.90;;;;;;4937339;29;20175;-78
2021/12/06 06:08:04;;;;;;;70.15;18.58;;;5.10;99.90;;;;;;4954683;29;20198;-78
2021/12/06 06:10:31;;;;;;;97.32;19.85;;;5.20;99.90;;;;;;4954645;29;20175;-77
2021/12/06 06:13:00;;;;;;;184.45;21.38;;;5.30;99.90;;;;;;4954668;29;20178;-78
2021/12/06 06:15:28;;;;;;;169.27;21.92;;;5.20;99.90;;;;;;4936679;29;20257;-78
2021/12/06 06:17:54;;;;;;;63.67;19.60;;;5.30;99.90;;;;;;4954121;29;20229;-83
2021/12/06 06:20:24;;;;;;;74.80;19.00;;;5.40;99.90;;;;;;4956209;28;20234;-77
2021/12/06 06:25:16;;;;;;;43.78;21.17;;;5.40;99.90;;;;;;4957245;29;20162;-77
2021/12/06 06:27:43;;;;;;;67.43;20.90;;;5.60;99.90;;;;;;4957092;29;20661;-77
2021/12/06 06:30:09;;;;;;;58.13;19.35;;;5.80;99.90;;;;;;4957226;29;20193;-77
2021/12/06 06:32:35;;;;;;;70.78;19.42;;;5.70;99.90;;;;;;4957252;29;20716;-77
2021/12/06 06:35:00;;;;;;;49.53;20.80;;;5.70;99.90;;;;;;4957290;29;20209;-78
2021/12/06 06:37:26;;;;;;;71.78;20.65;;;5.70;99.90;;;;;;4956892;29;20191;-79
2021/12/06 06:39:52;;;;;;;68.55;21.92;;;5.80;99.90;;;;;;4957333;29;20257;-78
2021/12/06 06:42:22;;;;;;;55.42;21.48;;;5.90;99.90;;;;;;4956508;29;20173;-78
2021/12/06 06:44:51;;;;;;;55.50;21.95;;;6.00;99.90;;;;;;4956928;29;20162;-77
2021/12/06 06:47:17;;;;;;;49.08;19.77;;;6.10;99.90;;;;;;4957083;29;20197;-78
2021/12/06 06:49:43;;;;;;;54.13;20.75;;;6.20;99.90;;;;;;4964047;29;20226;-78
2021/12/06 06:52:09;;;;;;;54.95;20.48;;;6.10;99.90;;;;;;4967808;29;20163;-77
2021/12/06 06:54:34;;;;;;;68.10;20.45;;;6.20;99.90;;;;;;4961093;29;20253;-79
2021/12/06 06:57:00;;;;;;;53.15;20.35;;;6.30;99.90;;;;;;4956770;29;20190;-78
2021/12/06 06:59:26;;;;;;;49.58;20.67;;;6.40;99.90;;;;;;4955118;29;20210;-78
2021/12/06 07:01:53;;;;;;;50.35;21.63;;;6.10;99.90;;;;;;4955913;29;20198;-81
2021/12/06 07:04:18;;;;;;;46.15;21.75;;;6.20;99.90;;;;;;4955746;29;20278;-77
2021/12/06 07:06:44;;;;;;;38.20;21.80;;;6.10;99.90;;;;;;4955645;29;20193;-77
2021/12/06 07:09:10;;;;;;;69.65;24.52;;;6.00;99.90;;;;;;4955924;29;20174;-77
2021/12/06 07:11:36;;;;;;;51.00;23.63;;;5.90;99.90;;;;;;4956146;29;20171;-78
2021/12/06 07:14:02;;;;;;;57.50;21.75;;;5.90;99.90;;;;;;4956037;29;20270;-77
2021/12/06 07:16:29;;;;;;;60.47;22.52;;;5.70;99.90;;;;;;4955791;29;20234;-78
2021/12/06 07:18:56;;;;;;;65.68;22.77;;;5.50;99.90;;;;;;4938457;29;20592;-78
2021/12/06 07:21:22;;;;;;;51.90;23.00;;;5.30;99.90;;;;;;4955461;29;20182;-78
2021/12/06 07:23:48;;;;;;;103.22;22.92;;;5.50;99.90;;;;;;4938456;29;20288;-78
2021/12/06 07:26:17;;;;;;;95.40;21.90;;;5.20;99.90;;;;;;4956021;29;20244;-78
2021/12/06 07:28:47;;;;;;;72.78;21.48;;;5.30;99.90;;;;;;4955862;29;20174;-77
2021/12/06 07:31:14;;;;;;;90.03;22.08;;;5.40;99.90;;;;;;4954507;28;20193;-79
2021/12/06 07:33:42;;;;;;;95.40;21.35;;;5.40;99.90;;;;;;4970829;28;20174;-78
2021/12/06 07:36:08;;;;;;;89.75;20.48;;;5.60;99.90;;;;;;4957854;28;20237;-77
2021/12/06 07:38:37;;;;;;;44.65;20.15;;;5.00;99.90;;;;;;4974986;28;20184;-77
2021/12/06 07:41:06;;;;;;;74.72;20.33;;;4.60;99.90;;;;;;4975032;28;20652;-81
2021/12/06 07:43:31;;;;;;;60.35;21.13;;;4.80;99.90;;;;;;4957204;28;20177;-80
2021/12/06 07:45:57;;;;;;;46.30;19.02;;;4.90;99.90;;;;;;4974718;28;20213;-79
2021/12/06 07:48:23;;;;;;;50.53;19.73;;;5.20;99.90;;;;;;4973387;28;20177;-77
2021/12/06 07:50:49;;;;;;;41.35;18.75;;;5.20;99.90;;;;;;4973544;28;20169;-77
2021/12/06 07:53:14;;;;;;;43.53;18.40;;;5.30;99.90;;;;;;4975689;28;20512;-78
2021/12/06 07:55:40;;;;;;;41.72;18.17;;;5.50;99.90;;;;;;4957504;28;20182;-77
2021/12/06 07:58:07;;;;;;;48.58;18.02;;;5.40;99.90;;;;;;4974978;28;20252;-77
2021/12/06 08:00:38;;;;;;;42.83;18.23;;;5.50;99.90;;;;;;4973630;28;20205;-83
2021/12/06 08:03:07;;;;;;;39.90;17.92;;;5.60;99.90;;;;;;4954598;28;20181;-77
2021/12/06 08:05:34;;;;;;;37.83;17.80;;;5.50;99.90;;;;;;4955249;29;20186;-78
2021/12/06 08:08:02;;;;;;;39.80;17.02;;;5.50;99.90;;;;;;4938088;29;20194;-75
2021/12/06 08:10:29;;;;;;;47.92;17.83;;;5.60;99.90;;;;;;4955141;29;20195;-77
2021/12/06 08:12:55;;;;;;;33.67;15.48;;;5.50;99.90;;;;;;4972451;28;20190;-77
2021/12/06 08:15:21;;;;;;;38.45;17.15;;;5.30;99.90;;;;;;4974710;28;20583;-80
2021/12/06 08:17:47;;;;;;;35.30;17.88;;;5.10;99.90;;;;;;4973838;28;20193;-79
2021/12/06 08:20:13;;;;;;;38.00;16.77;;;5.10;99.90;;;;;;4973374;28;20210;-83
2021/12/06 08:22:39;;;;;;;41.15;18.27;;;5.20;99.90;;;;;;4974321;28;20173;-83
2021/12/06 08:25:06;;;;;;;40.63;16.92;;;5.50;99.90;;;;;;4974376;28;20275;-77
2021/12/06 08:27:32;;;;;;;32.55;16.25;;;5.30;99.90;;;;;;4973805;28;20241;-77
2021/12/06 08:29:58;;;;;;;32.17;17.15;;;5.50;99.90;;;;;;4974183;28;20173;-81
2021/12/06 08:32:23;;;;;;;36.58;17.13;;;5.60;99.90;;;;;;4974016;28;20189;-82
2021/12/06 08:34:49;;;;;;;36.60;18.08;;;5.50;99.90;;;;;;4975966;28;20173;-76
2021/12/06 08:37:15;;;;;;;27.85;16.10;;;5.30;99.90;;;;;;4973964;28;20288;-76
2021/12/06 08:39:41;;;;;;;24.90;15.73;;;4.90;99.90;;;;;;4974160;28;20205;-76
2021/12/06 08:42:07;;;;;;;23.90;15.35;;;4.80;99.90;;;;;;4973930;28;20177;-75
2021/12/06 08:44:34;;;;;;;29.95;14.30;;;5.00;99.90;;;;;;4973803;28;20691;-80
2021/12/06 08:47:00;;;;;;;24.55;14.82;;;5.20;99.90;;;;;;4975589;28;20298;-81
2021/12/06 08:49:26;;;;;;;22.10;13.50;;;5.30;99.90;;;;;;4974797;28;20581;-82
2021/12/06 08:51:57;;;;;;;27.00;14.15;;;5.20;99.90;;;;;;4974763;28;20180;-77
2021/12/06 08:54:29;;;;;;;21.60;13.57;;;5.30;99.90;;;;;;4974176;28;20213;-82
2021/12/06 08:56:57;;;;;;;22.27;12.48;;;5.50;99.90;;;;;;4975177;28;20213;-92
2021/12/06 08:59:24;;;;;;;21.15;13.20;;;5.10;99.90;;;;;;4974347;28;20209;-85
2021/12/06 09:01:50;;;;;;;20.83;14.30;;;5.00;99.90;;;;;;4975975;28;20241;-91
2021/12/06 09:04:18;;;;;;;20.30;13.10;;;5.00;99.90;;;;;;4976141;28;20545;-78
2021/12/06 09:06:47;;;;;;;19.80;12.88;;;5.10;99.90;;;;;;4984443;28;20284;-76
2021/12/06 09:09:14;;;;;;;20.85;13.23;;;5.40;99.90;;;;;;4988495;28;20174;-79
2021/12/06 09:11:42;;;;;;;26.25;14.75;;;5.40;99.90;;;;;;4983916;28;20169;-78
2021/12/06 09:14:08;;;;;;;22.65;14.05;;;5.50;99.90;;;;;;4957235;28;20668;-77
2021/12/06 09:16:36;;;;;;;33.17;16.95;;;5.30;99.90;;;;;;4954570;29;20601;-77
2021/12/06 09:19:05;;;;;;;36.00;16.75;;;5.20;99.90;;;;;;4954308;29;20199;-91
2021/12/06 09:21:36;;;;;;;29.20;16.27;;;5.20;99.90;;;;;;4967277;28;20177;-81
2021/12/06 09:24:05;;;;;;;25.13;13.07;;;5.10;99.90;;;;;;4974287;28;20192;-82
2021/12/06 09:26:31;;;;;;;21.02;13.32;;;5.20;99.90;;;;;;4974027;28;20186;-81
2021/12/06 09:28:57;;;;;;;20.58;13.32;;;5.30;99.90;;;;;;4973914;28;20192;-78
2021/12/06 09:31:23;;;;;;;25.73;14.20;;;5.50;99.90;;;;;;4973593;28;20170;-78
2021/12/06 09:33:49;;;;;;;23.95;13.20;;;5.60;99.90;;;;;;4973528;28;20672;-77
2021/12/06 09:36:15;;;;;;;21.85;13.93;;;5.80;99.90;;;;;;4973393;28;20233;-78
2021/12/06 09:38:43;;;;;;;21.90;14.18;;;5.80;99.90;;;;;;4973360;28;20162;-77
2021/12/06 09:41:13;;;;;;;23.45;15.55;;;5.90;99.90;;;;;;4973388;28;20640;-78
2021/12/06 09:43:40;;;;;;;24.85;14.93;;;5.90;99.90;;;;;;4973496;28;20186;-78
2021/12/06 09:46:08;;;;;;;22.95;14.13;;;6.00;99.90;;;;;;4973263;28;20197;-77
2021/12/06 09:48:41;;;;;;;24.65;14.00;;;6.00;99.90;;;;;;4973328;28;20189;-78
2021/12/06 09:51:11;;;;;;;25.17;15.88;;;5.70;99.90;;;;;;4973063;28;20178;-79
2021/12/06 09:53:41;;;;;;;21.00;13.93;;;5.70;99.90;;;;;;4973488;28;20174;-77
2021/12/06 09:56:11;;;;;;;29.75;13.30;;;5.70;99.90;;;;;;4976437;28;20273;-77
2021/12/06 09:58:37;;;;;;;18.65;13.32;;;5.80;99.90;;;;;;4976440;28;20545;-83
2021/12/06 10:01:29;;;;;;;23.20;15.00;;;5.80;99.90;;;;;;4976815;28;20174;-78
2021/12/06 10:03:57;;;;;;;19.80;13.65;;;5.70;99.90;;;;;;4976869;28;20166;-77
2021/12/06 10:06:23;;;;;;;25.40;14.73;;;5.80;99.90;;;;;;4976622;28;20336;-78
2021/12/06 10:08:51;;;;;;;23.67;14.18;;;5.80;99.90;;;;;;4978551;28;20196;-77
2021/12/06 10:11:20;;;;;;;20.70;13.60;;;6.00;99.90;;;;;;4976656;28;20173;-77
2021/12/06 10:13:47;;;;;;;34.70;13.13;;;5.80;99.90;;;;;;4976408;28;20167;-77
2021/12/06 10:16:13;;;;;;;19.27;11.88;;;5.80;99.90;;;;;;4977739;28;20198;-78
2021/12/06 10:18:40;;;;;;;16.35;11.38;;;6.00;99.90;;;;;;4959553;28;20264;-77
2021/12/06 10:21:07;;;;;;;21.73;11.38;;;6.20;99.90;;;;;;4977111;28;20197;-80
2021/12/06 10:23:36;;;;;;;18.75;11.35;;;6.20;99.90;;;;;;4976238;28;20636;-78
2021/12/06 10:26:03;;;;;;;15.38;10.10;;;6.30;99.90;;;;;;4976251;28;20190;-78
2021/12/06 10:28:30;;;;;;;17.17;9.02;;;6.40;99.90;;;;;;4976391;28;20212;-78
2021/12/06 10:31:00;;;;;;;10.73;8.15;;;6.40;99.90;;;;;;4975983;28;20198;-77
2021/12/06 10:33:30;;;;;;;11.57;8.50;;;6.40;99.90;;;;;;4976370;28;20264;-77
2021/12/06 10:36:02;;;;;;;12.50;7.78;;;6.10;99.90;;;;;;4976082;28;20176;-77
2021/12/06 10:38:38;;;;;;;12.07;8.05;;;6.10;99.90;;;;;;4976076;28;20173;-77
2021/12/06 10:41:03;;;;;;;8.45;7.40;;;6.30;99.90;;;;;;4976251;28;20191;-78
2021/12/06 10:43:30;;;;;;;9.05;7.68;;;6.40;99.90;;;;;;4976540;28;20587;-77
2021/12/06 10:45:56;;;;;;;11.30;6.75;;;6.50;99.90;;;;;;4977605;28;20166;-77
2021/12/06 10:48:27;;;;;;;8.95;7.78;;;6.50;99.90;;;;;;4962904;28;20166;-76
2021/12/06 10:50:53;;;;;;;12.60;7.35;;;6.60;99.90;;;;;;4979145;28;20697;-76
2021/12/06 10:53:37;;;;;;;10.60;8.18;;;6.60;99.90;;;;;;4975726;28;20325;-77
2021/12/06 10:56:05;;;;;;;9.00;6.90;;;6.50;99.90;;;;;;4976165;28;20225;-77
2021/12/06 10:58:31;;;;;;;9.52;6.25;;;6.50;99.90;;;;;;4967098;28;20529;-77
2021/12/06 11:01:05;;;;;;;12.18;8.38;;;6.30;99.90;;;;;;4959884;28;20179;-77
2021/12/06 11:03:47;;;;;;;10.07;7.20;;;6.30;99.90;;;;;;4956403;28;20202;-77
2021/12/06 11:06:21;;;;;;;9.75;6.55;;;6.50;99.90;;;;;;4955120;28;20547;-77
2021/12/06 11:08:48;;;;;;;7.15;6.45;;;6.70;99.90;;;;;;4964465;28;20174;-76
2021/12/06 11:11:19;;;;;;;6.70;5.97;;;6.70;99.90;;;;;;4975403;28;20166;-77
2021/12/06 11:13:52;;;;;;;9.23;6.85;;;6.80;99.90;;;;;;4975225;28;20480;-77
2021/12/06 11:16:21;;;;;;;10.75;7.63;;;6.80;99.90;;;;;;4973472;28;20288;-77
2021/12/06 11:18:54;;;;;;;12.85;7.72;;;6.50;99.90;;;;;;4975814;28;20217;-77
2021/12/06 11:21:31;;;;;;;8.75;7.13;;;6.50;99.90;;;;;;4979454;28;20178;-78
2021/12/06 11:23:57;;;;;;;18.88;8.23;;;6.70;99.90;;;;;;4980514;28;20213;-76
2021/12/06 11:26:23;;;;;;;8.23;6.88;;;6.80;99.90;;;;;;4963515;28;20542;-78
2021/12/06 11:28:48;;;;;;;11.02;7.47;;;7.00;99.90;;;;;;4980011;28;20162;-79
2021/12/06 11:31:17;;;;;;;8.55;6.88;;;6.90;99.90;;;;;;4976355;28;20624;-76
2021/12/06 11:33:42;;;;;;;9.20;7.45;;;6.80;99.90;;;;;;4976780;28;20540;-78
2021/12/06 11:36:30;;;;;;;10.60;6.68;;;6.70;99.90;;;;;;4976896;28;20190;-77
2021/12/06 11:39:17;;;;;;;6.53;5.93;;;6.80;99.90;;;;;;4983674;28;20196;-78
2021/12/06 11:41:46;;;;;;;10.75;6.20;;;6.90;99.90;;;;;;4980817;28;20640;-78
2021/12/06 11:44:27;;;;;;;8.10;6.03;;;7.00;99.90;;;;;;4976190;28;20170;-78
2021/12/06 11:46:56;;;;;;;7.45;6.03;;;7.10;99.90;;;;;;4975630;28;20197;-89
2021/12/06 11:49:29;;;;;;;7.97;6.15;;;7.10;99.90;;;;;;4958521;28;20478;-77
2021/12/06 11:51:55;;;;;;;7.80;6.38;;;7.30;99.90;;;;;;4976146;28;20162;-78
2021/12/06 11:54:21;;;;;;;6.18;5.57;;;7.30;99.90;;;;;;4978401;28;20164;-77
2021/12/06 11:56:48;;;;;;;11.85;6.13;;;7.20;99.90;;;;;;4983484;28;20213;-77
2021/12/06 11:59:16;;;;;;;9.10;6.28;;;7.40;99.90;;;;;;4981707;28;20208;-79
2021/12/06 12:01:53;;;;;;;8.43;6.53;;;7.40;99.90;;;;;;4980317;28;20198;-89
2021/12/06 12:04:22;;;;;;;7.53;5.65;;;7.20;99.90;;;;;;4977032;28;20166;-81
2021/12/06 12:07:05;;;;;;;5.88;5.28;;;7.30;99.90;;;;;;4983273;28;20251;-78
2021/12/06 12:09:37;;;;;;;7.65;5.85;;;7.40;99.90;;;;;;4981098;28;20180;-77
2021/12/06 12:12:02;;;;;;;6.97;5.53;;;7.50;99.90;;;;;;4977456;28;20177;-77
2021/12/06 12:14:39;;;;;;;6.20;4.43;;;7.60;99.90;;;;;;4975590;28;20532;-77
2021/12/06 12:17:20;;;;;;;6.18;5.15;;;7.60;99.90;;;;;;4974380;28;20185;-79
2021/12/06 12:19:48;;;;;;;7.40;5.28;;;7.80;99.90;;;;;;4978085;28;20240;-78
2021/12/06 12:22:16;;;;;;;17.27;5.40;;;8.00;99.90;;;;;;4956831;28;20225;-78
2021/12/06 12:24:45;;;;;;;17.05;5.22;;;7.90;99.90;;;;;;4974414;28;20286;-78
2021/12/06 12:29:42;;;;;;;6.20;4.25;;;8.10;99.90;;;;;;4974355;28;20176;-79
2021/12/06 12:32:08;;;;;;;6.57;4.32;;;8.00;99.90;;;;;;4974251;28;20176;-78
2021/12/06 12:34:37;;;;;;;5.35;4.18;;;7.80;99.90;;;;;;4973778;28;20185;-78
2021/12/06 12:37:05;;;;;;;5.32;3.83;;;7.70;99.90;;;;;;4973985;28;20200;-78
2021/12/06 12:39:31;;;;;;;7.93;4.38;;;7.70;99.90;;;;;;4975361;28;20209;-77
2021/12/06 12:42:00;;;;;;;5.10;4.63;;;7.80;99.90;;;;;;4980098;28;20198;-80
2021/12/06 12:44:51;;;;;;;5.45;4.68;;;7.80;99.90;;;;;;4967499;28;20171;-78
2021/12/06 12:47:27;;;;;;;7.53;4.40;;;7.80;99.90;;;;;;4976655;28;20205;-78
2021/12/06 12:49:57;;;;;;;4.65;3.95;;;7.80;99.90;;;;;;4975880;28;20170;-78
2021/12/06 12:52:43;;;;;;;7.63;5.22;;;7.70;99.90;;;;;;4978204;28;20212;-78
2021/12/06 12:55:24;;;;;;;6.07;4.45;;;7.50;99.90;;;;;;4976287;28;20174;-78
2021/12/06 12:58:04;;;;;;;5.03;4.50;;;7.50;99.90;;;;;;4962748;28;20194;-78
2021/12/06 13:00:31;;;;;;;5.60;5.00;;;7.40;99.90;;;;;;4976327;28;20205;-78
2021/12/06 13:02:57;;;;;;;12.95;6.20;;;7.40;99.90;;;;;;4991918;28;20170;-78
2021/12/06 13:05:29;;;;;;;7.72;5.18;;;7.50;99.90;;;;;;4974456;28;20161;-78